CheckWX is a tool to help pilots better visualize weather data.  It is not intended as a substitute for an official pre-flight weather briefing.

12:45:30 UTC

KCPS TAF
St Louis Downtown Airport
Cahokia/St Louis, Illinois, USA
KCPS 221122Z 2212/2312 29006KT P6SM SKC FM221400 32009KT P6SM FEW250 FM222100 35009KT P6SM SKC FM230000 VRB04KT P6SM SKC

Mar-22@
12:00 UTC

Mar-22 @ 12:00 UTC

Mar-22@
14:00 UTC

Mar-22 @ 14:00 UTC

KCPS 221122Z 2212/2312 29006KT P6SM SKC
Wind
  • 290° at 6 KTS
Cloud Levels
  • Clear skies

Mar-22@
14:00 UTC

Mar-22 @ 14:00 UTC

Mar-22@
21:00 UTC

Mar-22 @ 21:00 UTC

FM221400 32009KT P6SM FEW250

From

From Standard forecast or significant change

Wind
  • 320° at 9 KTS
Cloud Levels
  • Few at 25,000' AGL

Mar-22@
21:00 UTC

Mar-22 @ 21:00 UTC

Mar-23@
00:00 UTC

Mar-23 @ 00:00 UTC

FM222100 35009KT P6SM SKC

From

From Standard forecast or significant change

Wind
  • 350° at 9 KTS
Cloud Levels
  • Clear skies

Mar-23@
00:00 UTC

Mar-23 @ 00:00 UTC

Mar-23@
12:00 UTC

Mar-23 @ 12:00 UTC

FM230000 VRB04KT P6SM SKC

From

From Standard forecast or significant change

Wind
  • Variable at 4 KTS
Cloud Levels
  • Clear skies